sensor_id;sensor_type;location;lat;lon;timestamp;P1;durP1;ratioP1;P2;durP2;ratioP2
56760;SDS011;42633;44.494;11.356;2022-12-07T00:01:31;97.75;;;46.72;;
56760;SDS011;42633;44.494;11.356;2022-12-07T00:04:38;103.15;;;48.33;;
56760;SDS011;42633;44.494;11.356;2022-12-07T00:07:52;108.10;;;47.17;;
56760;SDS011;42633;44.494;11.356;2022-12-07T00:11:11;107.82;;;48.47;;
56760;SDS011;42633;44.494;11.356;2022-12-07T00:14:28;103.93;;;45.55;;
56760;SDS011;42633;44.494;11.356;2022-12-07T00:17:38;101.57;;;47.35;;
56760;SDS011;42633;44.494;11.356;2022-12-07T00:20:44;102.10;;;47.45;;
56760;SDS011;42633;44.494;11.356;2022-12-07T00:23:54;103.50;;;48.80;;
56760;SDS011;42633;44.494;11.356;2022-12-07T00:26:59;98.97;;;49.00;;
56760;SDS011;42633;44.494;11.356;2022-12-07T00:30:06;95.97;;;46.30;;
56760;SDS011;42633;44.494;11.356;2022-12-07T00:33:19;105.15;;;48.60;;
56760;SDS011;42633;44.494;11.356;2022-12-07T00:36:27;102.43;;;46.35;;
56760;SDS011;42633;44.494;11.356;2022-12-07T00:39:32;102.80;;;48.58;;
56760;SDS011;42633;44.494;11.356;2022-12-07T00:46:11;103.68;;;47.67;;
56760;SDS011;42633;44.494;11.356;2022-12-07T00:49:17;100.70;;;45.15;;
56760;SDS011;42633;44.494;11.356;2022-12-07T00:55:55;99.57;;;45.75;;
56760;SDS011;42633;44.494;11.356;2022-12-07T00:59:01;100.25;;;45.45;;
56760;SDS011;42633;44.494;11.356;2022-12-07T01:02:10;105.20;;;46.35;;
56760;SDS011;42633;44.494;11.356;2022-12-07T01:05:15;98.30;;;46.38;;
56760;SDS011;42633;44.494;11.356;2022-12-07T01:08:24;94.20;;;44.63;;
56760;SDS011;42633;44.494;11.356;2022-12-07T01:11:29;100.13;;;48.00;;
56760;SDS011;42633;44.494;11.356;2022-12-07T01:14:45;99.50;;;45.05;;
56760;SDS011;42633;44.494;11.356;2022-12-07T01:17:53;103.75;;;46.97;;
56760;SDS011;42633;44.494;11.356;2022-12-07T01:21:08;95.22;;;45.40;;
56760;SDS011;42633;44.494;11.356;2022-12-07T01:24:28;91.78;;;43.47;;
56760;SDS011;42633;44.494;11.356;2022-12-07T01:27:42;94.90;;;41.53;;
56760;SDS011;42633;44.494;11.356;2022-12-07T01:31:04;98.03;;;44.78;;
56760;SDS011;42633;44.494;11.356;2022-12-07T01:34:11;98.63;;;44.80;;
56760;SDS011;42633;44.494;11.356;2022-12-07T01:37:15;94.78;;;43.95;;
56760;SDS011;42633;44.494;11.356;2022-12-07T01:47:25;98.55;;;43.33;;
56760;SDS011;42633;44.494;11.356;2022-12-07T01:50:34;97.45;;;41.60;;
56760;SDS011;42633;44.494;11.356;2022-12-07T01:53:43;101.23;;;44.70;;
56760;SDS011;42633;44.494;11.356;2022-12-07T01:56:52;100.38;;;44.90;;
56760;SDS011;42633;44.494;11.356;2022-12-07T02:00:00;89.88;;;42.63;;
56760;SDS011;42633;44.494;11.356;2022-12-07T02:03:34;86.15;;;41.40;;
56760;SDS011;42633;44.494;11.356;2022-12-07T02:06:55;87.30;;;42.38;;
56760;SDS011;42633;44.494;11.356;2022-12-07T02:10:15;77.50;;;39.08;;
56760;SDS011;42633;44.494;11.356;2022-12-07T02:13:27;91.63;;;41.00;;
56760;SDS011;42633;44.494;11.356;2022-12-07T02:20:23;94.88;;;40.60;;
56760;SDS011;42633;44.494;11.356;2022-12-07T02:31:12;84.28;;;38.80;;
56760;SDS011;42633;44.494;11.356;2022-12-07T02:34:28;92.38;;;39.38;;
56760;SDS011;42633;44.494;11.356;2022-12-07T02:37:53;87.30;;;40.60;;
56760;SDS011;42633;44.494;11.356;2022-12-07T02:41:25;85.38;;;38.25;;
56760;SDS011;42633;44.494;11.356;2022-12-07T02:44:37;90.50;;;39.97;;
56760;SDS011;42633;44.494;11.356;2022-12-07T02:47:43;97.97;;;39.50;;
56760;SDS011;42633;44.494;11.356;2022-12-07T02:50:54;93.43;;;40.22;;
56760;SDS011;42633;44.494;11.356;2022-12-07T02:53:59;93.00;;;41.00;;
56760;SDS011;42633;44.494;11.356;2022-12-07T03:00:21;94.82;;;41.08;;
56760;SDS011;42633;44.494;11.356;2022-12-07T03:03:25;87.18;;;38.75;;
56760;SDS011;42633;44.494;11.356;2022-12-07T03:06:32;92.57;;;41.70;;
56760;SDS011;42633;44.494;11.356;2022-12-07T03:09:57;93.15;;;41.10;;
56760;SDS011;42633;44.494;11.356;2022-12-07T03:16:27;99.63;;;43.03;;
56760;SDS011;42633;44.494;11.356;2022-12-07T03:19:54;98.18;;;43.33;;
56760;SDS011;42633;44.494;11.356;2022-12-07T03:23:03;100.95;;;42.13;;
56760;SDS011;42633;44.494;11.356;2022-12-07T03:26:13;96.03;;;43.00;;
56760;SDS011;42633;44.494;11.356;2022-12-07T03:29:25;96.70;;;42.92;;
56760;SDS011;42633;44.494;11.356;2022-12-07T03:32:43;108.88;;;43.72;;
56760;SDS011;42633;44.494;11.356;2022-12-07T03:36:50;102.65;;;42.00;;
56760;SDS011;42633;44.494;11.356;2022-12-07T03:43:03;112.90;;;45.10;;
56760;SDS011;42633;44.494;11.356;2022-12-07T03:49:57;116.32;;;45.65;;
56760;SDS011;42633;44.494;11.356;2022-12-07T03:53:11;126.75;;;50.05;;
56760;SDS011;42633;44.494;11.356;2022-12-07T03:56:47;127.82;;;46.80;;
56760;SDS011;42633;44.494;11.356;2022-12-07T03:59:54;121.15;;;49.58;;
56760;SDS011;42633;44.494;11.356;2022-12-07T04:03:00;120.78;;;48.13;;
56760;SDS011;42633;44.494;11.356;2022-12-07T04:06:06;129.35;;;48.88;;
56760;SDS011;42633;44.494;11.356;2022-12-07T04:09:10;122.18;;;47.03;;
56760;SDS011;42633;44.494;11.356;2022-12-07T04:12:14;122.53;;;50.03;;
56760;SDS011;42633;44.494;11.356;2022-12-07T04:15:22;128.73;;;47.08;;
56760;SDS011;42633;44.494;11.356;2022-12-07T04:18:27;125.50;;;47.67;;
56760;SDS011;42633;44.494;11.356;2022-12-07T04:21:32;125.97;;;49.50;;
56760;SDS011;42633;44.494;11.356;2022-12-07T04:24:39;121.55;;;50.03;;
56760;SDS011;42633;44.494;11.356;2022-12-07T04:30:51;123.35;;;47.42;;
56760;SDS011;42633;44.494;11.356;2022-12-07T04:33:55;123.23;;;48.83;;
56760;SDS011;42633;44.494;11.356;2022-12-07T04:37:01;120.18;;;51.17;;
56760;SDS011;42633;44.494;11.356;2022-12-07T04:40:06;127.60;;;49.10;;
56760;SDS011;42633;44.494;11.356;2022-12-07T04:43:12;117.50;;;48.05;;
56760;SDS011;42633;44.494;11.356;2022-12-07T04:46:18;129.82;;;51.25;;
56760;SDS011;42633;44.494;11.356;2022-12-07T04:49:22;135.98;;;52.53;;
56760;SDS011;42633;44.494;11.356;2022-12-07T04:52:27;125.07;;;49.55;;
56760;SDS011;42633;44.494;11.356;2022-12-07T04:55:36;121.82;;;50.72;;
56760;SDS011;42633;44.494;11.356;2022-12-07T04:58:41;125.57;;;50.85;;
56760;SDS011;42633;44.494;11.356;2022-12-07T05:01:47;121.32;;;51.38;;
56760;SDS011;42633;44.494;11.356;2022-12-07T05:04:53;124.88;;;49.55;;
56760;SDS011;42633;44.494;11.356;2022-12-07T05:07:57;127.13;;;49.95;;
56760;SDS011;42633;44.494;11.356;2022-12-07T05:11:06;136.43;;;50.40;;
56760;SDS011;42633;44.494;11.356;2022-12-07T05:14:14;126.13;;;53.25;;
56760;SDS011;42633;44.494;11.356;2022-12-07T05:17:22;127.07;;;49.22;;
56760;SDS011;42633;44.494;11.356;2022-12-07T05:20:31;125.07;;;50.25;;
56760;SDS011;42633;44.494;11.356;2022-12-07T05:23:37;133.82;;;51.92;;
56760;SDS011;42633;44.494;11.356;2022-12-07T05:26:43;127.70;;;53.33;;
56760;SDS011;42633;44.494;11.356;2022-12-07T05:29:51;129.82;;;51.88;;
56760;SDS011;42633;44.494;11.356;2022-12-07T05:32:55;135.30;;;52.00;;
56760;SDS011;42633;44.494;11.356;2022-12-07T05:36:00;135.15;;;51.75;;
56760;SDS011;42633;44.494;11.356;2022-12-07T05:39:10;124.20;;;50.38;;
56760;SDS011;42633;44.494;11.356;2022-12-07T05:42:14;133.10;;;52.33;;
56760;SDS011;42633;44.494;11.356;2022-12-07T05:45:20;134.95;;;53.67;;
56760;SDS011;42633;44.494;11.356;2022-12-07T05:48:25;127.68;;;52.30;;
56760;SDS011;42633;44.494;11.356;2022-12-07T05:51:35;123.45;;;49.38;;
56760;SDS011;42633;44.494;11.356;2022-12-07T05:54:40;128.38;;;52.42;;
56760;SDS011;42633;44.494;11.356;2022-12-07T05:57:45;129.38;;;52.55;;
56760;SDS011;42633;44.494;11.356;2022-12-07T06:04:43;137.82;;;54.67;;
56760;SDS011;42633;44.494;11.356;2022-12-07T06:07:50;142.07;;;54.23;;
56760;SDS011;42633;44.494;11.356;2022-12-07T06:10:58;140.50;;;55.60;;
56760;SDS011;42633;44.494;11.356;2022-12-07T06:14:23;137.95;;;55.20;;
56760;SDS011;42633;44.494;11.356;2022-12-07T06:17:27;141.65;;;54.95;;
56760;SDS011;42633;44.494;11.356;2022-12-07T06:20:34;123.63;;;52.10;;
56760;SDS011;42633;44.494;11.356;2022-12-07T06:23:41;139.57;;;56.20;;
56760;SDS011;42633;44.494;11.356;2022-12-07T06:26:48;132.32;;;52.13;;
56760;SDS011;42633;44.494;11.356;2022-12-07T06:29:54;130.00;;;52.55;;
56760;SDS011;42633;44.494;11.356;2022-12-07T06:32:58;130.77;;;50.47;;
56760;SDS011;42633;44.494;11.356;2022-12-07T06:36:03;122.22;;;50.50;;
56760;SDS011;42633;44.494;11.356;2022-12-07T06:39:07;118.40;;;48.60;;
56760;SDS011;42633;44.494;11.356;2022-12-07T06:42:13;110.80;;;47.78;;
56760;SDS011;42633;44.494;11.356;2022-12-07T06:45:19;109.57;;;44.40;;
56760;SDS011;42633;44.494;11.356;2022-12-07T06:48:33;109.68;;;44.80;;
56760;SDS011;42633;44.494;11.356;2022-12-07T06:51:42;102.18;;;47.22;;
56760;SDS011;42633;44.494;11.356;2022-12-07T06:54:50;107.13;;;46.05;;
56760;SDS011;42633;44.494;11.356;2022-12-07T06:57:57;101.50;;;47.00;;
56760;SDS011;42633;44.494;11.356;2022-12-07T07:05:58;92.00;;;43.70;;
56760;SDS011;42633;44.494;11.356;2022-12-07T07:09:04;85.65;;;43.67;;
56760;SDS011;42633;44.494;11.356;2022-12-07T07:12:15;85.07;;;41.83;;
56760;SDS011;42633;44.494;11.356;2022-12-07T07:19:24;82.53;;;42.92;;
56760;SDS011;42633;44.494;11.356;2022-12-07T07:22:31;84.68;;;42.13;;
56760;SDS011;42633;44.494;11.356;2022-12-07T07:30:59;91.78;;;44.08;;
56760;SDS011;42633;44.494;11.356;2022-12-07T07:34:05;95.38;;;44.35;;
56760;SDS011;42633;44.494;11.356;2022-12-07T07:37:13;85.93;;;44.90;;
56760;SDS011;42633;44.494;11.356;2022-12-07T07:40:18;93.50;;;46.72;;
56760;SDS011;42633;44.494;11.356;2022-12-07T07:43:45;93.57;;;47.67;;
56760;SDS011;42633;44.494;11.356;2022-12-07T07:46:55;90.38;;;45.03;;
56760;SDS011;42633;44.494;11.356;2022-12-07T07:50:28;98.63;;;46.08;;
56760;SDS011;42633;44.494;11.356;2022-12-07T07:53:40;90.32;;;45.03;;
56760;SDS011;42633;44.494;11.356;2022-12-07T07:56:54;97.47;;;48.58;;
56760;SDS011;42633;44.494;11.356;2022-12-07T08:14:04;88.88;;;41.72;;
56760;SDS011;42633;44.494;11.356;2022-12-07T15:54:48;47.90;;;32.03;;
56760;SDS011;42633;44.494;11.356;2022-12-07T15:58:30;53.40;;;33.53;;
56760;SDS011;42633;44.494;11.356;2022-12-07T16:01:52;51.25;;;34.22;;
56760;SDS011;42633;44.494;11.356;2022-12-07T16:05:05;50.10;;;34.15;;
56760;SDS011;42633;44.494;11.356;2022-12-07T16:08:19;51.00;;;33.50;;
56760;SDS011;42633;44.494;11.356;2022-12-07T16:37:01;55.75;;;33.90;;
56760;SDS011;42633;44.494;11.356;2022-12-07T16:40:06;54.28;;;34.58;;
56760;SDS011;42633;44.494;11.356;2022-12-07T16:43:11;52.65;;;33.53;;
56760;SDS011;42633;44.494;11.356;2022-12-07T16:46:28;55.88;;;37.00;;
56760;SDS011;42633;44.494;11.356;2022-12-07T16:54:48;53.60;;;33.53;;
56760;SDS011;42633;44.494;11.356;2022-12-07T16:57:53;52.58;;;34.13;;
56760;SDS011;42633;44.494;11.356;2022-12-07T17:00:58;58.47;;;36.83;;
56760;SDS011;42633;44.494;11.356;2022-12-07T17:04:07;58.97;;;36.00;;
56760;SDS011;42633;44.494;11.356;2022-12-07T17:08:05;55.03;;;35.47;;
56760;SDS011;42633;44.494;11.356;2022-12-07T17:14:31;59.05;;;35.58;;
56760;SDS011;42633;44.494;11.356;2022-12-07T17:17:57;59.10;;;36.17;;
56760;SDS011;42633;44.494;11.356;2022-12-07T17:21:03;57.67;;;36.13;;
56760;SDS011;42633;44.494;11.356;2022-12-07T20:15:32;77.20;;;43.83;;
56760;SDS011;42633;44.494;11.356;2022-12-07T20:19:02;67.85;;;39.70;;
56760;SDS011;42633;44.494;11.356;2022-12-07T20:22:37;65.57;;;40.22;;
56760;SDS011;42633;44.494;11.356;2022-12-07T20:30:36;60.45;;;37.35;;
56760;SDS011;42633;44.494;11.356;2022-12-07T20:42:40;66.72;;;39.58;;
56760;SDS011;42633;44.494;11.356;2022-12-07T20:45:47;66.00;;;38.15;;
56760;SDS011;42633;44.494;11.356;2022-12-07T20:48:52;58.25;;;35.50;;
56760;SDS011;42633;44.494;11.356;2022-12-07T21:06:36;67.57;;;37.83;;
56760;SDS011;42633;44.494;11.356;2022-12-07T21:09:57;69.60;;;39.30;;
56760;SDS011;42633;44.494;11.356;2022-12-07T21:13:09;73.50;;;39.78;;
56760;SDS011;42633;44.494;11.356;2022-12-07T21:16:51;75.53;;;41.58;;
56760;SDS011;42633;44.494;11.356;2022-12-07T21:21:13;73.63;;;41.10;;
56760;SDS011;42633;44.494;11.356;2022-12-07T21:24:26;75.85;;;38.72;;
56760;SDS011;42633;44.494;11.356;2022-12-07T21:27:55;69.95;;;37.13;;
56760;SDS011;42633;44.494;11.356;2022-12-07T21:51:32;92.43;;;41.58;;
56760;SDS011;42633;44.494;11.356;2022-12-07T21:54:40;89.28;;;42.22;;
56760;SDS011;42633;44.494;11.356;2022-12-07T21:58:00;82.47;;;42.33;;
56760;SDS011;42633;44.494;11.356;2022-12-07T22:33:17;108.63;;;47.72;;
56760;SDS011;42633;44.494;11.356;2022-12-07T22:36:28;110.55;;;49.13;;
56760;SDS011;42633;44.494;11.356;2022-12-07T22:40:10;112.57;;;49.75;;
56760;SDS011;42633;44.494;11.356;2022-12-07T22:43:25;112.10;;;49.78;;
56760;SDS011;42633;44.494;11.356;2022-12-07T22:46:37;122.95;;;50.40;;
56760;SDS011;42633;44.494;11.356;2022-12-07T22:49:53;116.97;;;51.08;;
56760;SDS011;42633;44.494;11.356;2022-12-07T22:53:02;126.75;;;54.67;;
56760;SDS011;42633;44.494;11.356;2022-12-07T22:56:16;124.60;;;53.00;;
56760;SDS011;42633;44.494;11.356;2022-12-07T22:59:21;134.40;;;54.25;;
56760;SDS011;42633;44.494;11.356;2022-12-07T23:02:28;137.75;;;56.55;;
56760;SDS011;42633;44.494;11.356;2022-12-07T23:13:12;127.63;;;56.33;;
56760;SDS011;42633;44.494;11.356;2022-12-07T23:16:40;134.85;;;54.05;;
56760;SDS011;42633;44.494;11.356;2022-12-07T23:23:27;135.27;;;57.95;;
56760;SDS011;42633;44.494;11.356;2022-12-07T23:26:35;144.65;;;58.75;;
56760;SDS011;42633;44.494;11.356;2022-12-07T23:29:47;146.85;;;60.58;;
56760;SDS011;42633;44.494;11.356;2022-12-07T23:32:58;145.40;;;56.63;;
56760;SDS011;42633;44.494;11.356;2022-12-07T23:36:07;156.60;;;60.05;;
56760;SDS011;42633;44.494;11.356;2022-12-07T23:39:21;155.23;;;59.33;;
56760;SDS011;42633;44.494;11.356;2022-12-07T23:42:31;162.25;;;63.55;;
56760;SDS011;42633;44.494;11.356;2022-12-07T23:45:36;159.05;;;61.20;;
56760;SDS011;42633;44.494;11.356;2022-12-07T23:48:42;161.25;;;61.58;;
56760;SDS011;42633;44.494;11.356;2022-12-07T23:51:48;163.98;;;61.03;;
56760;SDS011;42633;44.494;11.356;2022-12-07T23:54:55;168.25;;;64.15;;
56760;SDS011;42633;44.494;11.356;2022-12-07T23:58:04;170.50;;;64.05;;
